ENSG/SOG METAR and TAF weather

Enter ICAO airport designator
Station Type Date Time Source
ENSG METAR 2020/02/19 11:20 UTC NOAA

ENSG 191120Z 23004KT 9999 FEW/// BKN030 01/M01 Q1000 RMK WIND 3806FT 26011KT


Station Type Date Time Source
ENSG Decoded METAR 2020/02/19 11:20 UTC NOAA

Sogndal / Haukasen, Norway (ENSG) 61-09N 007-08E 497M
Feb 19, 2020 - 06:20 AM EST / 2020.02.19 1120 UTC
Wind: from the SW (230 degrees) at 5 MPH (4 KT):0
Visibility: greater than 7 mile(s):0
Sky conditions: mostly cloudy
Temperature: 33 F (1 C)
Windchill: 28 F (-2 C):1
Dew Point: 30 F (-1 C)
Relative Humidity: 86%
Pressure (altimeter): 29.53 in. Hg (1000 hPa)
ob: ENSG 191120Z 23004KT 9999 FEW/// BKN030 01/M01 Q1000 RMK WIND 3806FT 26011KT
cycle: 11

Station Type Date Time Source
ENSG TAF UTC NOAA

Error!

Example: see airport list